Time;durP1;ratioP1;P1;durP2;ratioP2;P2;SDS_P1;SDS_P2;PMS_P1;PMS_P2;Temp;Humidity;BMP_temperature;BMP_pressure;BME280_temperature;BME280_humidity;BME280_pressure;Samples;Min_cycle;Max_cycle;Signal;HPM_P1;HPM_P2
2021/04/29 00:01:33;;;;;;;12.93;8.63;;;10.50;99.90;;;;;;4240509;27;20027;-62
2021/04/29 00:03:34;;;;;;;11.80;7.97;;;10.50;99.90;;;;;;4240147;27;20023;-61
2021/04/29 00:05:36;;;;;;;12.90;7.97;;;10.50;99.90;;;;;;4241288;27;20019;-62
2021/04/29 00:07:37;;;;;;;12.40;8.43;;;10.50;99.90;;;;;;4240410;27;20092;-60
2021/04/29 00:09:38;;;;;;;12.77;8.53;;;10.50;99.90;;;;;;4240942;27;20012;-61
2021/04/29 00:11:40;;;;;;;13.17;8.00;;;10.50;99.90;;;;;;4240292;27;20043;-60
2021/04/29 00:13:42;;;;;;;14.23;8.13;;;10.50;99.90;;;;;;4240347;27;20019;-60
2021/04/29 00:15:44;;;;;;;12.43;7.60;;;10.50;99.90;;;;;;4240852;27;20023;-60
2021/04/29 00:17:45;;;;;;;11.20;7.47;;;10.50;99.90;;;;;;4239600;27;20072;-61
2021/04/29 00:19:46;;;;;;;11.07;8.30;;;10.50;99.90;;;;;;4241025;27;20657;-61
2021/04/29 00:21:48;;;;;;;13.47;7.60;;;10.40;99.90;;;;;;4239701;27;20038;-61
2021/04/29 00:23:49;;;;;;;10.17;7.57;;;10.50;99.90;;;;;;4241885;27;20544;-62
2021/04/29 00:25:50;;;;;;;13.80;8.20;;;10.50;99.90;;;;;;4237506;27;20051;-62
2021/04/29 00:27:51;;;;;;;16.53;8.87;;;10.40;99.90;;;;;;4241409;27;20079;-68
2021/04/29 00:29:52;;;;;;;11.60;7.27;;;10.40;99.90;;;;;;4239242;27;20019;-70
2021/04/29 00:31:53;;;;;;;12.13;8.20;;;10.40;99.90;;;;;;4241192;27;20092;-68
2021/04/29 00:33:54;;;;;;;11.83;7.93;;;10.40;99.90;;;;;;4239252;27;20445;-60
2021/04/29 00:36:00;;;;;;;10.03;7.33;;;10.40;99.90;;;;;;4241042;27;20027;-62
2021/04/29 00:38:01;;;;;;;15.10;8.17;;;10.40;99.90;;;;;;4239583;27;20015;-62
2021/04/29 00:40:04;;;;;;;14.00;7.73;;;10.40;99.90;;;;;;4240067;27;20043;-62
2021/04/29 00:42:06;;;;;;;12.60;8.13;;;10.30;99.90;;;;;;4239942;27;20012;-62
2021/04/29 00:44:07;;;;;;;13.80;8.53;;;10.40;99.90;;;;;;4239082;27;20035;-62
2021/04/29 00:46:13;;;;;;;15.27;8.83;;;10.30;99.90;;;;;;4240015;27;20111;-62
2021/04/29 00:48:15;;;;;;;15.17;8.37;;;10.30;99.90;;;;;;4239494;27;20048;-70
2021/04/29 00:50:20;;;;;;;12.73;8.20;;;10.30;99.90;;;;;;4240692;27;20027;-62
2021/04/29 00:52:22;;;;;;;11.00;8.40;;;10.30;99.90;;;;;;4236991;27;20575;-68
2021/04/29 00:54:23;;;;;;;14.23;7.83;;;10.30;99.90;;;;;;4241225;27;20055;-62
2021/04/29 00:56:25;;;;;;;11.77;8.50;;;10.30;99.90;;;;;;4238484;27;20441;-61
2021/04/29 00:58:26;;;;;;;11.03;7.53;;;10.30;99.90;;;;;;4240942;27;20080;-62
2021/04/29 01:00:28;;;;;;;13.83;8.37;;;10.30;99.90;;;;;;4238932;27;20031;-62
2021/04/29 01:02:31;;;;;;;11.97;7.93;;;10.30;99.90;;;;;;4240593;27;20096;-62
2021/04/29 01:05:04;;;;;;;14.47;8.97;;;10.30;99.90;;;;;;4239118;27;20023;-61
2021/04/29 01:07:09;;;;;;;13.07;7.63;;;10.30;99.90;;;;;;4240673;27;20043;-62
2021/04/29 01:09:17;;;;;;;12.70;7.50;;;10.30;99.90;;;;;;4239186;27;20424;-62
2021/04/29 01:11:24;;;;;;;11.30;6.50;;;10.30;99.90;;;;;;4241026;27;20478;-61
2021/04/29 01:13:27;;;;;;;13.57;7.37;;;10.30;99.90;;;;;;4238751;27;20031;-61
2021/04/29 01:15:29;;;;;;;11.87;7.97;;;10.30;99.90;;;;;;4239012;27;20741;-62
2021/04/29 01:17:31;;;;;;;13.83;8.53;;;10.30;99.90;;;;;;4238701;27;20491;-60
2021/04/29 01:20:00;;;;;;;14.87;7.87;;;10.20;99.90;;;;;;4240312;27;20437;-61
2021/04/29 01:22:01;;;;;;;12.67;7.73;;;10.20;99.90;;;;;;4239033;27;20047;-68
2021/04/29 01:24:14;;;;;;;13.97;7.73;;;10.20;99.90;;;;;;4240632;27;20091;-60
2021/04/29 01:26:33;;;;;;;12.63;8.50;;;10.20;99.90;;;;;;4237916;28;20027;-61
2021/04/29 01:28:36;;;;;;;14.90;9.17;;;10.20;99.90;;;;;;4240519;28;20444;-62
2021/04/29 01:30:39;;;;;;;12.20;8.70;;;10.10;99.90;;;;;;4238483;27;20080;-62
2021/04/29 01:32:41;;;;;;;20.13;8.97;;;10.10;99.90;;;;;;4240640;28;20031;-70
2021/04/29 01:34:43;;;;;;;12.20;7.70;;;10.10;99.90;;;;;;4238573;28;20031;-62
2021/04/29 01:36:47;;;;;;;12.67;8.67;;;10.00;99.90;;;;;;4240609;28;20019;-61
2021/04/29 01:38:49;;;;;;;12.43;8.13;;;10.00;99.90;;;;;;4238555;27;20081;-62
2021/04/29 01:40:51;;;;;;;13.53;8.70;;;9.90;99.90;;;;;;4238628;28;20782;-74
2021/04/29 01:42:52;;;;;;;12.27;8.30;;;9.90;99.90;;;;;;4238405;27;20039;-62
2021/04/29 01:44:53;;;;;;;15.07;9.03;;;9.90;99.90;;;;;;4239440;27;20072;-61
2021/04/29 01:46:57;;;;;;;13.00;9.17;;;9.90;99.90;;;;;;4239100;28;20081;-61
2021/04/29 01:48:59;;;;;;;14.97;8.67;;;9.90;99.90;;;;;;4239142;27;20043;-62
2021/04/29 01:51:02;;;;;;;12.27;8.10;;;9.90;99.90;;;;;;4239525;27;20155;-62
2021/04/29 01:53:05;;;;;;;12.83;8.83;;;9.90;99.90;;;;;;4238956;28;20051;-64
2021/04/29 01:55:08;;;;;;;12.77;8.37;;;9.90;99.90;;;;;;4239636;27;20072;-62
2021/04/29 01:57:09;;;;;;;11.60;8.80;;;9.90;99.90;;;;;;4241798;27;20027;-61
2021/04/29 01:59:10;;;;;;;13.87;8.23;;;9.90;99.90;;;;;;4243593;27;20031;-72
2021/04/29 02:01:11;;;;;;;13.60;8.93;;;9.90;99.90;;;;;;4241613;27;20036;-59
2021/04/29 02:03:13;;;;;;;13.70;9.13;;;9.90;99.90;;;;;;4243747;27;20023;-62
2021/04/29 02:05:15;;;;;;;14.53;9.50;;;9.90;99.90;;;;;;4241239;27;20039;-63
2021/04/29 02:07:17;;;;;;;15.70;8.70;;;9.90;99.90;;;;;;4241884;27;20080;-61
2021/04/29 02:09:18;;;;;;;15.37;10.57;;;9.90;99.90;;;;;;4241467;27;20035;-63
2021/04/29 02:11:20;;;;;;;16.93;10.33;;;9.90;99.90;;;;;;4242657;27;20043;-61
2021/04/29 02:13:22;;;;;;;16.80;10.00;;;9.90;99.90;;;;;;4241941;27;20445;-62
2021/04/29 02:15:32;;;;;;;15.43;9.77;;;9.90;99.90;;;;;;4243298;27;20039;-69
2021/04/29 02:17:39;;;;;;;14.77;9.50;;;9.80;99.90;;;;;;4241583;27;20031;-61
2021/04/29 02:19:42;;;;;;;18.10;9.63;;;9.90;99.90;;;;;;4243347;27;20035;-59
2021/04/29 02:21:46;;;;;;;15.63;9.73;;;9.90;99.90;;;;;;4241805;27;20023;-62
2021/04/29 02:23:49;;;;;;;18.07;9.03;;;9.90;99.90;;;;;;4242933;27;20096;-60
2021/04/29 02:25:55;;;;;;;21.20;10.00;;;10.00;99.90;;;;;;4241754;27;20042;-59
2021/04/29 02:27:59;;;;;;;16.90;9.63;;;10.00;99.90;;;;;;4240785;27;20027;-61
2021/04/29 02:30:00;;;;;;;19.17;10.50;;;10.00;99.90;;;;;;4242025;27;20353;-61
2021/04/29 02:32:01;;;;;;;17.40;10.70;;;10.00;99.90;;;;;;4240524;27;20088;-60
2021/04/29 02:34:04;;;;;;;15.67;9.90;;;10.00;99.90;;;;;;4240583;27;20027;-61
2021/04/29 02:36:06;;;;;;;16.03;10.27;;;10.00;99.90;;;;;;4241110;27;20031;-60
2021/04/29 02:38:08;;;;;;;20.50;9.43;;;10.00;99.90;;;;;;4242474;27;20083;-61
2021/04/29 02:40:12;;;;;;;15.83;9.43;;;10.00;99.90;;;;;;4241285;27;20925;-63
2021/04/29 02:42:13;;;;;;;15.87;10.33;;;10.00;99.90;;;;;;4243196;27;20080;-61
2021/04/29 02:44:15;;;;;;;15.50;9.17;;;10.00;99.90;;;;;;4239197;27;20047;-58
2021/04/29 02:46:16;;;;;;;17.70;9.83;;;10.00;99.90;;;;;;4243311;27;20100;-61
2021/04/29 02:48:19;;;;;;;17.00;9.30;;;10.00;99.90;;;;;;4240992;27;20437;-60
2021/04/29 02:50:22;;;;;;;12.70;9.00;;;10.00;99.90;;;;;;4243137;27;20127;-62
2021/04/29 02:52:23;;;;;;;15.67;9.93;;;10.00;99.90;;;;;;4240871;27;20039;-61
2021/04/29 02:54:25;;;;;;;16.43;10.63;;;10.00;99.90;;;;;;4243425;27;20035;-61
2021/04/29 02:56:26;;;;;;;16.80;10.90;;;10.00;99.90;;;;;;4240633;27;20043;-61
2021/04/29 02:58:27;;;;;;;18.20;10.07;;;10.00;99.90;;;;;;4242295;27;20162;-66
2021/04/29 03:00:30;;;;;;;19.87;11.80;;;10.00;99.90;;;;;;4240964;27;20023;-60
2021/04/29 03:02:31;;;;;;;24.23;13.00;;;10.00;99.90;;;;;;4240111;27;20409;-61
2021/04/29 03:04:32;;;;;;;20.03;12.03;;;10.00;99.90;;;;;;4241862;27;20128;-62
2021/04/29 03:06:35;;;;;;;20.33;11.63;;;10.00;99.90;;;;;;4239740;27;20068;-63
2021/04/29 03:08:36;;;;;;;23.50;11.97;;;10.00;99.90;;;;;;4241848;27;20039;-71
2021/04/29 03:10:38;;;;;;;18.70;11.30;;;10.00;99.90;;;;;;4240526;27;20084;-61
2021/04/29 03:12:40;;;;;;;23.17;11.73;;;10.00;99.90;;;;;;4242672;27;20039;-61
2021/04/29 03:14:41;;;;;;;20.73;11.07;;;10.00;99.90;;;;;;4241070;27;20760;-69
2021/04/29 03:16:42;;;;;;;17.50;10.60;;;10.00;99.90;;;;;;4242441;27;20035;-62
2021/04/29 03:18:43;;;;;;;19.27;11.73;;;10.00;99.90;;;;;;4240697;27;20543;-62
2021/04/29 03:20:44;;;;;;;19.23;11.57;;;9.90;99.90;;;;;;4240644;27;20100;-62
2021/04/29 03:22:46;;;;;;;16.53;11.00;;;10.00;99.90;;;;;;4240544;27;20080;-62
2021/04/29 03:24:49;;;;;;;19.47;11.27;;;10.00;99.90;;;;;;4242529;27;20035;-64
2021/04/29 03:26:50;;;;;;;18.87;11.47;;;10.00;99.90;;;;;;4240205;27;20081;-63
2021/04/29 03:28:51;;;;;;;20.73;11.53;;;10.00;99.90;;;;;;4241823;27;20494;-68
2021/04/29 03:30:53;;;;;;;17.10;10.67;;;10.00;99.90;;;;;;4238593;27;20436;-62
2021/04/29 03:32:54;;;;;;;18.03;10.67;;;10.00;99.90;;;;;;4241385;27;20079;-73
2021/04/29 03:34:55;;;;;;;16.80;10.50;;;10.10;99.90;;;;;;4240918;27;20471;-62
2021/04/29 03:36:56;;;;;;;14.80;10.00;;;10.10;99.90;;;;;;4240153;27;20038;-61
2021/04/29 03:38:57;;;;;;;16.37;10.30;;;10.20;99.90;;;;;;4241645;27;20043;-61
2021/04/29 03:40:58;;;;;;;16.70;10.20;;;10.10;99.90;;;;;;4240370;27;20064;-62
2021/04/29 03:43:00;;;;;;;17.73;10.80;;;10.10;99.90;;;;;;4241515;27;20035;-59
2021/04/29 03:45:01;;;;;;;18.23;11.60;;;10.10;99.90;;;;;;4239916;27;20053;-61
2021/04/29 03:47:03;;;;;;;18.73;11.00;;;10.10;99.90;;;;;;4241455;27;20043;-61
2021/04/29 03:49:04;;;;;;;18.43;11.60;;;10.10;99.90;;;;;;4240356;27;20031;-62
2021/04/29 03:51:05;;;;;;;18.20;10.77;;;10.10;99.90;;;;;;4241910;27;20528;-64
2021/04/29 03:53:07;;;;;;;21.17;11.93;;;10.10;99.90;;;;;;4238443;27;20043;-62
2021/04/29 03:55:08;;;;;;;23.23;12.23;;;10.20;99.90;;;;;;4241685;27;20064;-62
2021/04/29 03:57:09;;;;;;;15.10;10.70;;;10.30;99.90;;;;;;4239414;27;20042;-62
2021/04/29 03:59:11;;;;;;;15.67;10.87;;;10.40;99.90;;;;;;4239004;27;20043;-60
2021/04/29 04:01:12;;;;;;;15.40;9.80;;;10.40;99.90;;;;;;4232805;27;20031;-62
2021/04/29 04:03:13;;;;;;;15.63;10.77;;;10.50;99.90;;;;;;4223391;28;20483;-62
2021/04/29 04:05:14;;;;;;;15.57;10.13;;;10.60;99.90;;;;;;4223607;28;20077;-63
2021/04/29 04:07:17;;;;;;;17.13;10.23;;;10.70;99.90;;;;;;4222692;28;20048;-62
2021/04/29 04:09:18;;;;;;;18.67;11.90;;;10.80;99.90;;;;;;4223869;28;20023;-62
2021/04/29 04:11:19;;;;;;;18.33;11.30;;;10.90;99.90;;;;;;4226288;27;20500;-63
2021/04/29 04:13:21;;;;;;;23.20;11.57;;;11.00;99.90;;;;;;4238490;27;20080;-61
2021/04/29 04:15:23;;;;;;;21.53;11.87;;;11.00;99.90;;;;;;4239103;27;20039;-62
2021/04/29 04:17:24;;;;;;;19.70;11.23;;;11.00;99.90;;;;;;4225757;27;20024;-61
2021/04/29 04:19:25;;;;;;;23.13;11.33;;;11.00;99.90;;;;;;4225482;27;20027;-63
2021/04/29 04:21:26;;;;;;;19.23;11.37;;;11.00;99.90;;;;;;4224571;27;20488;-62
2021/04/29 04:23:27;;;;;;;25.83;12.17;;;10.90;99.90;;;;;;4222549;28;20085;-61
2021/04/29 04:25:28;;;;;;;20.33;11.53;;;10.90;99.90;;;;;;4223636;28;20043;-61
2021/04/29 04:27:30;;;;;;;24.63;12.77;;;10.90;99.90;;;;;;4226823;27;20031;-63
2021/04/29 04:29:31;;;;;;;20.90;11.77;;;10.90;99.90;;;;;;4240711;27;20091;-63
2021/04/29 04:31:32;;;;;;;21.47;11.57;;;10.90;99.90;;;;;;4237589;27;20392;-62
2021/04/29 04:33:33;;;;;;;22.00;12.13;;;10.90;99.90;;;;;;4240268;27;20027;-62
2021/04/29 04:35:34;;;;;;;21.93;12.77;;;10.90;99.90;;;;;;4239765;27;20039;-62
2021/04/29 04:37:35;;;;;;;24.70;13.10;;;11.00;99.90;;;;;;4239484;27;20060;-62
2021/04/29 04:39:37;;;;;;;23.00;11.07;;;11.10;99.90;;;;;;4238035;27;20031;-66
2021/04/29 04:41:38;;;;;;;17.37;10.87;;;11.10;99.90;;;;;;4238788;27;20035;-63
2021/04/29 04:43:39;;;;;;;26.27;11.67;;;11.10;99.90;;;;;;4239923;27;20058;-63
2021/04/29 04:45:43;;;;;;;21.20;12.00;;;11.10;99.90;;;;;;4238381;27;20420;-63
2021/04/29 04:47:44;;;;;;;25.03;12.57;;;11.20;99.90;;;;;;4240493;27;20027;-62
2021/04/29 04:49:45;;;;;;;24.00;11.73;;;11.20;99.90;;;;;;4238333;27;20043;-61
2021/04/29 04:51:47;;;;;;;18.87;11.33;;;11.20;99.90;;;;;;4240565;27;20663;-64
2021/04/29 04:53:48;;;;;;;28.77;11.30;;;11.20;99.90;;;;;;4238714;27;20520;-69
2021/04/29 04:55:51;;;;;;;24.13;11.13;;;11.20;99.90;;;;;;4239883;27;20088;-66
2021/04/29 04:57:52;;;;;;;20.07;10.80;;;11.30;99.90;;;;;;4229708;27;20376;-64
2021/04/29 04:59:53;;;;;;;20.90;11.00;;;11.30;99.90;;;;;;4223433;28;20051;-62
2021/04/29 05:01:54;;;;;;;18.07;10.17;;;11.30;99.90;;;;;;4219967;28;20024;-61
2021/04/29 05:03:56;;;;;;;26.50;11.40;;;11.40;99.90;;;;;;4221924;28;20136;-69
2021/04/29 05:05:57;;;;;;;19.87;11.50;;;11.50;99.90;;;;;;4221770;28;20032;-66
2021/04/29 05:07:59;;;;;;;18.50;11.53;;;11.60;99.90;;;;;;4221963;28;20105;-66
2021/04/29 05:10:01;;;;;;;17.93;11.33;;;11.70;99.90;;;;;;4222068;28;20023;-61
2021/04/29 05:12:02;;;;;;;21.17;11.60;;;11.70;99.90;;;;;;4221835;28;20077;-68
2021/04/29 05:14:03;;;;;;;20.83;12.17;;;11.80;99.90;;;;;;4221287;28;20059;-64
2021/04/29 05:16:04;;;;;;;21.87;10.77;;;11.90;99.90;;;;;;4220670;28;20049;-61
2021/04/29 05:18:06;;;;;;;20.10;11.80;;;11.90;99.90;;;;;;4223095;28;20047;-69
2021/04/29 05:20:07;;;;;;;22.47;11.77;;;12.00;99.90;;;;;;4221048;28;20093;-61
2021/04/29 05:22:10;;;;;;;19.17;11.80;;;12.20;99.90;;;;;;4222447;28;20675;-65
2021/04/29 05:24:11;;;;;;;19.23;11.90;;;12.30;99.90;;;;;;4221597;28;20073;-62
2021/04/29 05:26:13;;;;;;;21.47;11.67;;;12.50;99.90;;;;;;4222740;28;20495;-70
2021/04/29 05:28:14;;;;;;;21.93;12.73;;;12.70;99.90;;;;;;4220553;28;20051;-69
2021/04/29 05:30:16;;;;;;;27.20;12.40;;;12.90;99.90;;;;;;4224112;28;20164;-72
2021/04/29 05:32:17;;;;;;;21.93;12.07;;;13.00;99.90;;;;;;4224491;28;20096;-66
2021/04/29 05:34:18;;;;;;;24.50;13.67;;;13.00;99.90;;;;;;4225823;28;20998;-62
2021/04/29 05:36:19;;;;;;;29.37;15.83;;;13.00;99.90;;;;;;4224767;27;20036;-66
2021/04/29 05:38:20;;;;;;;34.67;18.73;;;13.10;99.90;;;;;;4225681;28;20024;-70
2021/04/29 05:40:22;;;;;;;33.97;18.03;;;13.10;99.90;;;;;;4225094;28;20019;-65
2021/04/29 05:42:23;;;;;;;29.80;15.53;;;13.20;99.90;;;;;;4224486;28;20024;-65
2021/04/29 05:44:24;;;;;;;26.57;14.10;;;13.20;99.90;;;;;;4225761;28;20088;-69
2021/04/29 05:46:25;;;;;;;26.03;14.03;;;13.00;99.90;;;;;;4224398;28;20057;-61
2021/04/29 05:48:26;;;;;;;23.87;12.50;;;12.80;99.90;;;;;;4225920;27;20035;-64
2021/04/29 05:50:27;;;;;;;24.83;13.53;;;12.60;99.90;;;;;;4224160;28;20483;-70
2021/04/29 05:52:28;;;;;;;29.43;14.27;;;12.60;99.90;;;;;;4225673;28;20445;-64
2021/04/29 05:54:30;;;;;;;22.10;11.93;;;12.50;99.90;;;;;;4224398;28;20084;-61
2021/04/29 05:56:31;;;;;;;19.30;11.53;;;12.40;99.90;;;;;;4225600;28;20061;-63
2021/04/29 05:58:32;;;;;;;16.23;11.20;;;12.40;99.90;;;;;;4223804;28;20096;-70
2021/04/29 06:00:35;;;;;;;18.70;12.53;;;12.30;99.90;;;;;;4225693;28;20357;-66
2021/04/29 06:02:36;;;;;;;20.23;12.43;;;12.20;99.90;;;;;;4223641;28;20031;-60
2021/04/29 06:04:38;;;;;;;18.97;11.83;;;12.20;99.90;;;;;;4225463;28;20036;-70
2021/04/29 06:06:39;;;;;;;21.00;12.20;;;12.20;99.90;;;;;;4224061;28;20483;-60
2021/04/29 06:08:40;;;;;;;15.17;11.53;;;12.20;99.90;;;;;;4224172;28;20496;-69
2021/04/29 06:10:41;;;;;;;21.20;13.50;;;12.20;99.90;;;;;;4224736;28;20039;-61
2021/04/29 06:12:44;;;;;;;23.23;12.40;;;12.20;99.90;;;;;;4224177;28;20032;-62
2021/04/29 06:14:45;;;;;;;19.80;12.10;;;12.20;99.90;;;;;;4225180;28;20076;-62
2021/04/29 06:16:46;;;;;;;21.23;12.63;;;12.20;99.90;;;;;;4223578;28;20073;-64
2021/04/29 06:18:49;;;;;;;19.07;11.53;;;12.20;99.90;;;;;;4225769;28;20418;-69
2021/04/29 06:20:50;;;;;;;17.30;11.63;;;12.30;99.90;;;;;;4221536;28;20531;-62
2021/04/29 06:22:52;;;;;;;16.40;10.60;;;12.30;99.90;;;;;;4225631;27;20043;-61
2021/04/29 06:24:54;;;;;;;20.67;11.53;;;12.40;99.90;;;;;;4223754;28;20937;-65
2021/04/29 06:26:55;;;;;;;21.70;11.00;;;12.40;99.90;;;;;;4225493;28;20033;-71
2021/04/29 06:28:56;;;;;;;20.33;11.43;;;12.50;99.90;;;;;;4223588;28;20549;-61
2021/04/29 06:30:57;;;;;;;19.00;11.20;;;12.50;99.90;;;;;;4224983;28;20043;-63
2021/04/29 06:32:58;;;;;;;16.40;10.77;;;12.60;99.90;;;;;;4223410;28;20092;-64
2021/04/29 06:34:59;;;;;;;16.23;10.53;;;12.60;99.90;;;;;;4224418;28;20660;-63
2021/04/29 06:37:01;;;;;;;17.93;10.07;;;12.60;99.90;;;;;;4223576;28;20943;-62
2021/04/29 06:39:03;;;;;;;15.90;10.00;;;12.60;99.90;;;;;;4224895;28;20039;-60
2021/04/29 06:41:04;;;;;;;18.20;10.27;;;12.60;99.90;;;;;;4221992;28;20036;-68
2021/04/29 06:43:05;;;;;;;17.30;10.63;;;12.60;99.90;;;;;;4224357;28;20020;-66
2021/04/29 06:45:07;;;;;;;17.97;11.30;;;12.80;99.90;;;;;;4224647;28;20028;-65
2021/04/29 06:47:09;;;;;;;21.63;12.10;;;12.80;99.90;;;;;;4222975;28;20120;-65
2021/04/29 06:49:10;;;;;;;24.83;11.87;;;12.90;99.90;;;;;;4224701;28;20109;-67
2021/04/29 06:51:11;;;;;;;16.23;10.83;;;12.90;99.90;;;;;;4223250;28;20028;-67
2021/04/29 06:53:12;;;;;;;25.17;11.93;;;13.00;99.90;;;;;;4222859;28;20534;-66
2021/04/29 06:55:13;;;;;;;16.37;10.43;;;13.10;99.90;;;;;;4222348;27;20044;-70
2021/04/29 06:57:15;;;;;;;15.27;9.90;;;13.20;99.90;;;;;;4224274;28;20031;-68
2021/04/29 06:59:16;;;;;;;16.77;11.47;;;13.20;99.90;;;;;;4223212;28;20524;-68
2021/04/29 07:01:17;;;;;;;17.37;10.37;;;13.20;99.90;;;;;;4224803;28;20484;-70
2021/04/29 07:03:18;;;;;;;22.00;11.63;;;13.30;99.90;;;;;;4223374;28;20088;-70
2021/04/29 07:05:20;;;;;;;16.80;11.27;;;13.40;99.90;;;;;;4224949;28;20032;-70
2021/04/29 07:07:21;;;;;;;25.37;12.00;;;13.50;99.90;;;;;;4222687;28;20409;-69
2021/04/29 07:09:22;;;;;;;17.73;11.37;;;13.60;99.90;;;;;;4223827;28;20081;-64
2021/04/29 07:11:23;;;;;;;24.53;12.90;;;13.60;99.90;;;;;;4222939;28;20019;-68
2021/04/29 07:13:24;;;;;;;19.67;10.27;;;13.70;99.90;;;;;;4223671;28;20028;-69
2021/04/29 07:15:25;;;;;;;21.10;12.67;;;13.80;99.90;;;;;;4223830;28;20041;-70
2021/04/29 07:17:26;;;;;;;21.87;11.30;;;13.80;99.90;;;;;;4223307;28;20540;-70
2021/04/29 07:19:28;;;;;;;19.70;12.10;;;13.80;99.90;;;;;;4224563;28;20568;-69
2021/04/29 07:21:29;;;;;;;17.20;10.93;;;13.80;99.90;;;;;;4223005;28;20540;-69
2021/04/29 07:23:31;;;;;;;18.20;11.00;;;13.80;99.90;;;;;;4224689;28;20032;-71
2021/04/29 07:25:33;;;;;;;20.37;11.07;;;13.90;99.90;;;;;;4222893;28;20104;-69
2021/04/29 07:27:35;;;;;;;22.27;11.63;;;14.00;99.90;;;;;;4224169;28;20073;-70
2021/04/29 07:29:36;;;;;;;20.20;11.40;;;14.10;99.90;;;;;;4222754;28;20031;-69
2021/04/29 07:31:38;;;;;;;20.50;12.47;;;14.20;99.90;;;;;;4224435;28;20448;-70
2021/04/29 07:33:40;;;;;;;19.07;12.03;;;14.20;99.90;;;;;;4222862;28;20039;-63
2021/04/29 07:35:41;;;;;;;17.60;10.50;;;14.30;99.90;;;;;;4224250;28;20035;-70
2021/04/29 07:37:42;;;;;;;16.73;11.00;;;14.50;99.90;;;;;;4222506;28;20434;-67
2021/04/29 07:39:43;;;;;;;17.83;11.27;;;14.60;99.90;;;;;;4222134;28;20643;-68
2021/04/29 07:41:46;;;;;;;19.47;10.93;;;14.70;99.90;;;;;;4222822;28;20711;-71
2021/04/29 07:43:47;;;;;;;15.30;10.20;;;14.70;99.90;;;;;;4223557;28;20032;-63
2021/04/29 07:45:48;;;;;;;17.27;10.30;;;14.80;99.90;;;;;;4223120;28;20060;-65
2021/04/29 07:47:49;;;;;;;19.73;10.90;;;14.80;99.90;;;;;;4222396;28;20031;-70
2021/04/29 07:49:50;;;;;;;16.60;10.63;;;14.80;99.90;;;;;;4223667;28;20027;-71
2021/04/29 07:51:52;;;;;;;16.33;10.67;;;14.90;99.90;;;;;;4221621;28;20364;-68
2021/04/29 07:53:54;;;;;;;18.80;10.97;;;15.00;99.90;;;;;;4223411;28;20467;-64
2021/04/29 07:55:55;;;;;;;19.33;10.70;;;15.10;99.90;;;;;;4222435;28;20430;-65
2021/04/29 07:57:57;;;;;;;16.67;10.57;;;15.10;99.90;;;;;;4223905;28;20710;-68
2021/04/29 07:59:58;;;;;;;17.27;10.00;;;15.30;99.90;;;;;;4222138;28;20085;-69
2021/04/29 08:01:59;;;;;;;19.53;10.63;;;15.40;99.90;;;;;;4223499;28;20453;-65
2021/04/29 08:04:01;;;;;;;17.83;10.57;;;15.50;99.90;;;;;;4221986;28;20032;-62
2021/04/29 08:06:03;;;;;;;15.43;10.27;;;15.50;99.90;;;;;;4223455;28;20027;-69
2021/04/29 08:08:04;;;;;;;18.42;10.48;;;15.60;99.90;;;;;;4221484;28;20457;-69
2021/04/29 08:10:08;;;;;;;17.87;10.77;;;15.60;99.90;;;;;;4223509;28;20096;-69
2021/04/29 08:12:09;;;;;;;17.40;9.88;;;15.80;99.90;;;;;;4222335;28;20031;-70
2021/04/29 08:14:10;;;;;;;16.90;9.70;;;16.00;99.90;;;;;;4223562;28;20032;-66
2021/04/29 08:16:11;;;;;;;12.70;9.57;;;16.00;99.90;;;;;;4222185;28;20093;-65
2021/04/29 08:18:12;;;;;;;16.13;9.75;;;16.00;99.90;;;;;;4222384;28;20028;-65
2021/04/29 08:20:14;;;;;;;14.50;9.10;;;16.20;99.90;;;;;;4223255;28;20064;-62
2021/04/29 08:22:15;;;;;;;18.05;9.30;;;16.40;99.90;;;;;;4221962;28;20076;-64
2021/04/29 08:24:17;;;;;;;14.40;9.05;;;16.30;99.90;;;;;;4223547;28;20039;-62
2021/04/29 08:26:18;;;;;;;15.57;9.50;;;16.30;99.90;;;;;;4221315;28;20031;-62
2021/04/29 08:28:19;;;;;;;14.02;8.93;;;16.30;99.90;;;;;;4223266;28;20048;-60
2021/04/29 08:30:27;;;;;;;16.38;9.18;;;16.30;99.90;;;;;;4221228;28;20176;-61
2021/04/29 08:32:28;;;;;;;13.75;9.85;;;16.40;99.90;;;;;;4223170;28;20045;-64
2021/04/29 08:34:29;;;;;;;12.20;8.85;;;16.50;99.90;;;;;;4221552;28;20032;-64
2021/04/29 08:36:30;;;;;;;21.35;8.88;;;16.50;99.90;;;;;;4223158;28;20035;-70
2021/04/29 08:38:31;;;;;;;17.42;8.77;;;16.60;99.90;;;;;;4221278;28;20476;-58
2021/04/29 08:40:33;;;;;;;14.27;9.00;;;16.60;99.90;;;;;;4222462;28;20116;-66
2021/04/29 08:42:34;;;;;;;17.52;11.95;;;16.70;99.90;;;;;;4221376;28;20073;-62
2021/04/29 08:44:36;;;;;;;20.17;12.05;;;16.60;99.90;;;;;;4222290;28;20032;-68
2021/04/29 08:46:38;;;;;;;12.90;8.18;;;16.70;99.90;;;;;;4221419;28;20172;-64
2021/04/29 08:48:40;;;;;;;15.98;9.85;;;16.80;99.90;;;;;;4222444;28;20035;-61
2021/04/29 08:50:41;;;;;;;11.38;8.00;;;17.10;99.90;;;;;;4222339;28;20032;-62
2021/04/29 08:52:43;;;;;;;12.07;8.10;;;17.10;99.90;;;;;;4220608;28;20052;-71
2021/04/29 08:54:46;;;;;;;10.25;7.35;;;17.10;99.90;;;;;;4223032;28;20539;-70
2021/04/29 08:56:48;;;;;;;11.18;7.93;;;17.00;99.90;;;;;;4220849;28;20027;-70
2021/04/29 08:58:58;;;;;;;14.20;8.43;;;17.20;99.90;;;;;;4222779;28;20076;-68
2021/04/29 09:01:03;;;;;;;;;;;17.30;99.90;;;;;;4221742;28;20097;-62
2021/04/29 09:03:05;;;;;;;11.68;8.27;;;17.30;99.90;;;;;;4221799;28;20340;-66
2021/04/29 09:05:12;;;;;;;14.13;7.75;;;17.40;99.90;;;;;;4220616;28;20032;-65
2021/04/29 09:07:18;;;;;;;15.38;8.98;;;17.40;99.90;;;;;;4223280;28;20084;-67
2021/04/29 09:09:19;;;;;;;12.57;8.10;;;17.40;99.90;;;;;;4220880;28;20028;-64
2021/04/29 09:11:21;;;;;;;16.85;8.57;;;17.30;99.90;;;;;;4223074;28;20037;-72
2021/04/29 09:13:24;;;;;;;16.73;9.32;;;17.30;99.90;;;;;;4220938;28;20039;-64
2021/04/29 09:15:28;;;;;;;14.38;8.57;;;17.30;99.90;;;;;;4223116;28;20426;-62
2021/04/29 09:17:30;;;;;;;12.25;8.52;;;17.30;99.90;;;;;;4221211;28;20084;-64
2021/04/29 09:19:34;;;;;;;14.35;8.30;;;17.20;99.90;;;;;;4221833;28;20069;-62
2021/04/29 09:21:36;;;;;;;13.93;8.32;;;17.20;99.90;;;;;;4220695;28;20031;-70
2021/04/29 09:23:40;;;;;;;16.02;7.82;;;17.30;99.90;;;;;;4222567;28;20088;-68
2021/04/29 09:25:52;;;;;;;10.93;7.00;;;17.40;99.90;;;;;;4219792;28;20507;-66
2021/04/29 09:27:54;;;;;;;13.23;8.75;;;17.30;99.90;;;;;;4222399;28;20628;-60
2021/04/29 09:29:59;;;;;;;15.95;7.50;;;17.20;99.90;;;;;;4221189;28;20603;-61
2021/04/29 09:32:01;;;;;;;10.93;7.90;;;17.30;99.90;;;;;;4222124;28;20100;-63
2021/04/29 09:34:02;;;;;;;14.88;8.15;;;17.40;99.90;;;;;;4221996;28;20110;-60
2021/04/29 09:36:05;;;;;;;17.38;8.90;;;17.40;99.90;;;;;;4221580;28;20097;-63
2021/04/29 09:38:11;;;;;;;12.82;8.23;;;17.50;99.90;;;;;;4222146;28;20096;-66
2021/04/29 09:40:27;;;;;;;13.18;8.32;;;17.40;99.90;;;;;;4221380;28;20480;-62
2021/04/29 09:42:30;;;;;;;18.15;9.70;;;17.30;99.90;;;;;;4221532;28;20399;-62
2021/04/29 09:44:35;;;;;;;13.20;8.35;;;17.40;99.90;;;;;;4221109;28;20125;-63
2021/04/29 09:47:03;;;;;;;14.20;8.50;;;17.60;99.90;;;;;;4222017;28;20035;-66
2021/04/29 09:49:24;;;;;;;14.82;7.65;;;17.70;99.90;;;;;;4221639;28;20028;-58
2021/04/29 09:51:36;;;;;;;10.07;7.32;;;17.80;99.90;;;;;;4220275;28;20023;-62
2021/04/29 09:53:42;;;;;;;12.95;7.22;;;18.10;99.90;;;;;;4221373;28;20081;-74
2021/04/29 09:55:47;;;;;;;12.15;7.25;;;18.50;99.90;;;;;;4221505;28;20480;-67
2021/04/29 09:58:03;;;;;;;12.45;7.55;;;18.80;99.90;;;;;;4220892;28;20096;-73
2021/04/29 10:00:10;;;;;;;10.75;7.45;;;19.00;99.90;;;;;;4221032;28;20084;-63
2021/04/29 10:02:14;;;;;;;13.13;8.45;;;18.90;99.90;;;;;;4221576;28;20088;-60
2021/04/29 10:04:15;;;;;;;14.13;7.75;;;18.80;99.90;;;;;;4220732;28;20092;-64
2021/04/29 10:06:17;;;;;;;13.18;9.32;;;19.00;99.90;;;;;;4220963;28;20414;-61
2021/04/29 10:08:23;;;;;;;12.38;8.85;;;18.90;99.90;;;;;;4222040;28;20510;-69
2021/04/29 10:10:24;;;;;;;12.90;8.40;;;18.70;99.90;;;;;;4220518;28;20356;-71
2021/04/29 10:12:26;;;;;;;12.73;9.00;;;18.60;99.90;;;;;;4222160;28;20096;-62
2021/04/29 10:14:35;;;;;;;12.13;8.07;;;18.50;99.90;;;;;;4220844;28;20028;-65
2021/04/29 10:16:37;;;;;;;11.70;7.47;;;18.60;99.90;;;;;;4224006;28;20077;-68
2021/04/29 10:18:38;;;;;;;10.98;7.10;;;18.60;99.90;;;;;;4223546;27;20048;-72
2021/04/29 10:20:46;;;;;;;11.85;7.03;;;18.40;99.90;;;;;;4224944;28;20112;-62
2021/04/29 10:22:48;;;;;;;14.85;7.78;;;18.50;99.90;;;;;;4223316;28;20039;-64
2021/04/29 10:24:49;;;;;;;12.68;7.95;;;18.50;99.90;;;;;;4225995;27;20143;-70
2021/04/29 10:27:05;;;;;;;14.18;8.27;;;18.40;99.90;;;;;;4224025;28;20085;-62